createdAt,value
2022-08-29T00:01:28.849Z,102252.22
2022-08-29T00:03:57.467Z,102232.16
2022-08-29T00:06:25.579Z,102254.00
2022-08-29T00:08:53.098Z,102251.34
2022-08-29T00:11:20.908Z,102248.72
2022-08-29T00:13:48.823Z,102248.72
2022-08-29T00:16:16.407Z,102244.34
2022-08-29T00:18:44.025Z,102247.81
2022-08-29T00:21:11.550Z,102239.97
2022-08-29T00:23:40.459Z,102234.69
2022-08-29T00:26:08.314Z,102241.72
2022-08-29T00:28:35.859Z,102238.22
2022-08-29T00:31:03.506Z,102242.59
2022-08-29T00:33:31.615Z,102252.16
2022-08-29T00:35:59.298Z,102257.38
2022-08-29T00:38:27.770Z,102263.44
2022-08-29T00:40:58.306Z,102271.28
2022-08-29T00:43:32.929Z,102270.41
2022-08-29T00:46:38.721Z,102260.81
2022-08-29T00:49:11.796Z,102260.81
2022-08-29T00:51:41.050Z,102255.56
2022-08-29T00:54:11.303Z,102271.28
2022-08-29T00:56:41.551Z,102272.97
2022-08-29T00:59:23.209Z,102269.50
2022-08-29T01:01:53.819Z,102257.31
2022-08-29T01:04:24.327Z,102231.09
2022-08-29T01:06:53.290Z,102259.97
2022-08-29T01:09:21.349Z,102263.44
2022-08-29T01:12:06.993Z,102267.81
2022-08-29T01:14:38.451Z,102266.13
2022-08-29T01:17:10.174Z,102269.59
2022-08-29T01:19:41.863Z,102252.09
2022-08-29T01:22:37.114Z,102274.84
2022-08-29T01:25:09.994Z,102270.47
2022-08-29T01:27:41.166Z,102271.34
2022-08-29T01:30:10.157Z,102263.53
2022-08-29T01:32:37.966Z,102280.09
2022-08-29T01:35:08.559Z,102260.94
2022-08-29T01:37:39.542Z,102273.16
2022-08-29T01:40:08.657Z,102274.91
2022-08-29T01:42:37.386Z,102279.25
2022-08-29T01:45:09.876Z,102268.78
2022-08-29T01:47:39.966Z,102272.28
2022-08-29T01:50:13.376Z,102264.44
2022-08-29T01:52:42.961Z,102267.06
2022-08-29T01:55:10.586Z,102267.06
2022-08-29T01:57:40.875Z,102254.88
2022-08-29T02:00:10.609Z,102262.72
2022-08-29T02:02:38.360Z,102259.22
2022-08-29T02:05:07.201Z,102258.38
2022-08-29T02:07:34.690Z,102263.59
2022-08-29T02:10:02.166Z,102256.63
2022-08-29T02:12:29.714Z,102257.47
2022-08-29T02:14:57.214Z,102253.09
2022-08-29T02:17:25.463Z,102254.84
2022-08-29T02:19:52.934Z,102259.19
2022-08-29T02:22:20.790Z,102246.97
2022-08-29T02:24:48.349Z,102266.13
2022-08-29T02:27:15.858Z,102262.63
2022-08-29T02:29:43.375Z,102264.38
2022-08-29T02:32:14.533Z,102266.94
2022-08-29T02:34:47.775Z,102260.81
2022-08-29T02:37:16.943Z,102264.28
2022-08-29T02:39:44.453Z,102266.03
2022-08-29T02:42:11.919Z,102276.47
2022-08-29T02:44:39.441Z,102269.47
2022-08-29T02:47:09.038Z,102271.22
2022-08-29T02:49:36.650Z,102270.31
2022-08-29T02:52:06.592Z,102282.53
2022-08-29T02:54:34.746Z,102266.00
2022-08-29T02:57:02.251Z,102283.41
2022-08-29T02:59:29.771Z,102279.06
2022-08-29T03:01:57.553Z,102278.22
2022-08-29T03:04:25.119Z,102276.47
2022-08-29T03:06:52.626Z,102280.00
2022-08-29T03:09:20.169Z,102272.97
2022-08-29T03:11:47.723Z,102272.13
2022-08-29T03:14:16.024Z,102276.50
2022-08-29T03:16:43.654Z,102275.63
2022-08-29T03:19:11.394Z,102281.75
2022-08-29T03:21:38.873Z,102275.63
2022-08-29T03:24:06.479Z,102278.28
2022-08-29T03:26:33.985Z,102266.06
2022-08-29T03:29:01.457Z,102264.38
2022-08-29T03:31:28.974Z,102265.25
2022-08-29T03:33:57.060Z,102256.53
2022-08-29T03:36:27.023Z,102257.41
2022-08-29T03:38:54.699Z,102249.59
2022-08-29T03:41:24.855Z,102245.25
2022-08-29T03:43:52.910Z,102249.59
2022-08-29T03:46:20.459Z,102248.75
2022-08-29T03:48:48.455Z,102234.78
2022-08-29T03:51:18.247Z,102247.91
2022-08-29T03:53:46.001Z,102247.91
2022-08-29T03:56:18.897Z,102254.91
2022-08-29T03:58:51.951Z,102252.25
2022-08-29T04:01:22.594Z,102237.47
2022-08-29T04:03:50.330Z,102221.75
2022-08-29T04:06:17.976Z,102215.63
2022-08-29T04:08:48.252Z,102232.22
2022-08-29T04:11:17.872Z,102228.72
2022-08-29T04:13:45.679Z,102237.44
2022-08-29T04:16:16.025Z,102226.97
2022-08-29T04:18:44.338Z,102233.09
2022-08-29T04:21:13.049Z,102238.31
2022-08-29T04:23:41.181Z,102228.72
2022-08-29T04:26:37.010Z,102216.50
2022-08-29T04:29:05.821Z,102241.81
2022-08-29T04:31:33.424Z,102236.59
2022-08-29T04:34:00.981Z,102242.66
2022-08-29T04:36:29.107Z,102235.66
2022-08-29T04:38:57.392Z,102243.53
2022-08-29T04:41:24.912Z,102252.28
2022-08-29T04:43:52.450Z,102247.03
2022-08-29T04:46:24.400Z,102248.78
2022-08-29T04:48:52.736Z,102252.25
2022-08-29T04:51:21.169Z,102248.78
2022-08-29T04:53:48.951Z,102246.16
2022-08-29T04:56:16.497Z,102247.91
2022-08-29T04:58:45.019Z,102252.25
2022-08-29T05:01:18.617Z,102249.63
2022-08-29T05:03:46.239Z,102243.50
2022-08-29T05:06:16.377Z,102243.50
2022-08-29T05:08:46.238Z,102237.41
2022-08-29T05:11:22.518Z,102246.16
2022-08-29T05:13:52.537Z,102257.50
2022-08-29T05:16:20.417Z,102259.22
2022-08-29T05:18:48.490Z,102264.47
2022-08-29T05:21:27.122Z,102266.22
2022-08-29T05:23:57.131Z,102266.22
2022-08-29T05:26:25.888Z,102269.72
2022-08-29T05:28:53.531Z,102270.59
2022-08-29T05:31:22.303Z,102276.69
2022-08-29T05:33:50.184Z,102275.81
2022-08-29T05:36:17.946Z,102274.03
2022-08-29T05:38:46.033Z,102264.41
2022-08-29T05:41:13.545Z,102265.25
2022-08-29T05:43:41.039Z,102262.63
2022-08-29T05:46:11.316Z,102266.94
2022-08-29T05:48:42.662Z,102259.03
2022-08-29T05:51:20.425Z,102270.31
2022-08-29T05:53:48.562Z,102265.94
2022-08-29T05:56:25.600Z,102265.91
2022-08-29T05:58:53.999Z,102265.88
2022-08-29T06:01:32.740Z,102248.41
2022-08-29T06:04:01.650Z,102273.69
2022-08-29T06:06:31.230Z,102273.66
2022-08-29T06:09:00.169Z,102270.13
2022-08-29T06:11:31.765Z,102274.50
2022-08-29T06:14:00.462Z,102280.56
2022-08-29T06:16:30.007Z,102263.94
2022-08-29T06:18:57.907Z,102281.38
2022-08-29T06:21:26.031Z,102278.69
2022-08-29T06:23:53.550Z,102274.31
2022-08-29T06:26:21.112Z,102289.13
2022-08-29T06:28:49.470Z,102291.72
2022-08-29T06:31:27.307Z,102294.34
2022-08-29T06:33:57.594Z,102289.97
2022-08-29T06:36:26.073Z,102285.50
2022-08-29T06:38:56.124Z,102282.75
2022-08-29T06:41:24.800Z,102291.34
2022-08-29T06:43:53.118Z,102285.00
2022-08-29T06:46:29.931Z,102283.81
2022-08-29T06:48:59.230Z,102288.88
2022-08-29T06:51:32.678Z,102299.16
2022-08-29T06:54:07.051Z,102292.09
2022-08-29T06:56:37.114Z,102293.72
2022-08-29T06:59:05.668Z,102291.84
2022-08-29T07:01:34.312Z,102279.47
2022-08-29T07:04:03.185Z,102290.06
2022-08-29T07:06:31.457Z,102286.47
2022-08-29T07:09:00.079Z,102274.22
2022-08-29T07:11:31.018Z,102288.16
2022-08-29T07:14:01.662Z,102284.66
2022-08-29T07:16:30.780Z,102286.34
2022-08-29T07:18:58.393Z,102290.22
2022-08-29T07:21:28.547Z,102292.84
2022-08-29T07:23:58.310Z,102306.00
2022-08-29T07:26:30.402Z,102295.63
2022-08-29T07:29:00.090Z,102292.06
2022-08-29T07:31:31.379Z,102290.38
2022-08-29T07:34:02.024Z,102293.81
2022-08-29T07:36:31.831Z,102289.47
2022-08-29T07:38:59.360Z,102293.75
2022-08-29T07:41:28.505Z,102291.06
2022-08-29T07:43:56.039Z,102289.84
2022-08-29T07:46:25.559Z,102289.00
2022-08-29T07:48:53.641Z,102295.00
2022-08-29T07:51:23.782Z,102299.41
2022-08-29T07:53:52.666Z,102292.31
2022-08-29T07:56:24.822Z,102289.66
2022-08-29T07:58:52.540Z,102278.88
2022-08-29T08:01:21.472Z,102284.19
2022-08-29T08:03:50.900Z,102294.56
2022-08-29T08:06:20.974Z,102292.56
2022-08-29T08:08:49.103Z,102292.56
2022-08-29T08:11:17.783Z,102289.88
2022-08-29T08:13:45.411Z,102283.06
2022-08-29T08:16:17.162Z,102274.72
2022-08-29T08:18:45.612Z,102283.13
2022-08-29T08:21:13.858Z,102283.28
2022-08-29T08:23:42.575Z,102275.97
2022-08-29T08:26:12.226Z,102286.94
2022-08-29T08:28:40.580Z,102286.94
2022-08-29T08:31:10.211Z,102281.53
2022-08-29T08:33:39.333Z,102286.84
2022-08-29T08:36:22.668Z,102286.41
2022-08-29T08:38:51.666Z,102288.75
2022-08-29T08:41:29.700Z,102269.78
2022-08-29T08:44:07.169Z,102277.25
2022-08-29T08:46:43.119Z,102289.44
2022-08-29T08:49:19.730Z,102298.00
2022-08-29T08:51:53.763Z,102287.75
2022-08-29T08:54:25.972Z,102292.38
2022-08-29T08:57:08.684Z,102291.38
2022-08-29T08:59:43.411Z,102291.06
2022-08-29T09:02:35.296Z,102297.59
2022-08-29T09:05:20.690Z,102296.78
2022-08-29T09:07:50.912Z,102296.59
2022-08-29T09:10:28.957Z,102298.91
2022-08-29T09:13:12.117Z,102304.53
2022-08-29T09:15:44.451Z,102298.69
2022-08-29T09:18:27.166Z,102296.78
2022-08-29T09:20:54.709Z,102302.81
2022-08-29T09:23:22.127Z,102300.34
2022-08-29T09:25:49.818Z,102307.03
2022-08-29T09:28:17.404Z,102303.78
2022-08-29T09:31:06.179Z,102310.66
2022-08-29T09:33:45.856Z,102283.75
2022-08-29T09:36:15.790Z,102300.88
2022-08-29T09:38:43.425Z,102307.06
2022-08-29T09:41:11.554Z,102302.34
2022-08-29T09:43:45.265Z,102304.91
2022-08-29T09:46:12.743Z,102297.19
2022-08-29T09:48:43.587Z,102298.03
2022-08-29T09:51:11.228Z,102308.72
2022-08-29T09:53:38.914Z,102299.06
2022-08-29T09:56:09.266Z,102307.00
2022-08-29T09:58:41.700Z,102304.25
2022-08-29T10:01:24.846Z,102302.50
2022-08-29T10:04:03.152Z,102292.66
2022-08-29T10:06:34.163Z,102283.81
2022-08-29T10:09:09.402Z,102294.41
2022-08-29T10:11:54.297Z,102296.56
2022-08-29T10:14:41.713Z,102292.25
2022-08-29T10:17:56.558Z,102297.50
2022-08-29T10:20:36.266Z,102291.44
2022-08-29T10:23:37.714Z,102292.97
2022-08-29T10:26:35.483Z,102295.94
2022-08-29T10:29:20.410Z,102296.84
2022-08-29T10:32:32.402Z,102294.09
2022-08-29T10:35:24.030Z,102294.91
2022-08-29T10:38:06.630Z,102293.25
2022-08-29T10:40:48.794Z,102289.94
2022-08-29T10:43:38.208Z,102294.44
2022-08-29T10:46:27.478Z,102296.81
2022-08-29T10:49:00.839Z,102285.44
2022-08-29T10:51:42.810Z,102280.97
2022-08-29T10:54:33.370Z,102276.63
2022-08-29T10:57:02.203Z,102265.72
2022-08-29T10:59:35.383Z,102269.19
2022-08-29T11:02:13.831Z,102264.94
2022-08-29T11:04:46.841Z,102267.63
2022-08-29T11:07:26.981Z,102264.34
2022-08-29T11:09:59.899Z,102272.03
2022-08-29T11:12:51.537Z,102265.47
2022-08-29T11:15:48.365Z,102269.13
2022-08-29T11:18:31.341Z,102274.03
2022-08-29T11:21:17.241Z,102267.16
2022-08-29T11:23:49.262Z,102268.22
2022-08-29T11:26:28.978Z,102269.31
2022-08-29T11:29:14.791Z,102272.06
2022-08-29T11:32:28.794Z,102258.72
2022-08-29T11:35:14.802Z,102262.72
2022-08-29T11:37:51.121Z,102254.13
2022-08-29T11:43:47.978Z,102251.94
2022-08-29T11:46:17.028Z,102254.38
2022-08-29T11:48:47.668Z,102255.38
2022-08-29T11:51:51.632Z,102236.19
2022-08-29T11:54:25.312Z,102230.84
2022-08-29T11:57:13.114Z,102234.78
2022-08-29T11:59:49.674Z,102230.97
2022-08-29T12:02:29.270Z,102237.59
2022-08-29T12:05:05.505Z,102231.16
2022-08-29T12:07:43.401Z,102230.38
2022-08-29T12:10:23.681Z,102243.59
2022-08-29T12:12:56.571Z,102226.81
2022-08-29T12:15:33.329Z,102229.78
2022-08-29T12:18:03.878Z,102226.16
2022-08-29T12:20:31.700Z,102225.72
2022-08-29T12:23:03.578Z,102224.69
2022-08-29T12:25:41.309Z,102229.19
2022-08-29T12:28:18.024Z,102225.47
2022-08-29T12:31:05.045Z,102225.44
2022-08-29T12:33:36.316Z,102232.03
2022-08-29T12:36:28.756Z,102197.44
2022-08-29T12:39:19.462Z,102222.47
2022-08-29T12:42:21.394Z,102220.16
2022-08-29T12:45:02.202Z,102217.97
2022-08-29T12:47:45.778Z,102213.88
2022-08-29T12:50:22.070Z,102208.97
2022-08-29T12:53:20.399Z,102202.19
2022-08-29T12:55:51.647Z,102199.50
2022-08-29T12:58:47.105Z,102199.72
2022-08-29T13:01:26.537Z,102183.00
2022-08-29T13:04:03.231Z,102189.97
2022-08-29T13:06:32.487Z,102183.94
2022-08-29T13:09:00.805Z,102183.56
2022-08-29T13:11:32.085Z,102174.38
2022-08-29T13:14:12.445Z,102183.25
2022-08-29T13:16:40.915Z,102179.22
2022-08-29T13:19:22.578Z,102167.31
2022-08-29T13:21:50.166Z,102184.84
2022-08-29T13:24:20.695Z,102175.75
2022-08-29T13:27:06.246Z,102166.22
2022-08-29T13:29:42.391Z,102153.94
2022-08-29T13:32:09.921Z,102157.06
2022-08-29T13:34:37.515Z,102145.88
2022-08-29T13:37:10.616Z,102145.69
2022-08-29T13:39:48.592Z,102160.28
2022-08-29T13:42:20.586Z,102163.31
2022-08-29T13:44:48.082Z,102173.16
2022-08-29T13:47:18.461Z,102167.19
2022-08-29T13:49:46.920Z,102163.47
2022-08-29T13:52:15.507Z,102150.94
2022-08-29T13:54:43.591Z,102156.69
2022-08-29T13:57:21.972Z,102152.69
2022-08-29T13:59:50.260Z,102153.69
2022-08-29T14:02:19.182Z,102144.44
2022-08-29T14:04:48.657Z,102148.78
2022-08-29T14:07:28.114Z,102149.03
2022-08-29T14:09:55.751Z,102142.66
2022-08-29T14:12:33.695Z,102112.28
2022-08-29T14:15:08.166Z,102132.50
2022-08-29T14:17:37.467Z,102116.75
2022-08-29T14:20:06.808Z,102117.41
2022-08-29T14:22:34.299Z,102119.75
2022-08-29T14:25:02.919Z,102134.41
2022-08-29T14:27:30.858Z,102129.88
2022-08-29T14:29:58.610Z,102133.56
2022-08-29T14:32:26.996Z,102123.41
2022-08-29T14:34:54.775Z,102138.25
2022-08-29T14:37:22.466Z,102131.09
2022-08-29T14:39:50.530Z,102142.03
2022-08-29T14:42:19.434Z,102131.19
2022-08-29T14:44:47.036Z,102128.28
2022-08-29T14:47:14.997Z,102126.06
2022-08-29T14:49:42.742Z,102113.66
2022-08-29T14:52:11.879Z,102132.50
2022-08-29T14:54:39.401Z,102110.50
2022-08-29T14:57:07.215Z,102108.88
2022-08-29T14:59:36.115Z,102101.25
2022-08-29T15:02:04.967Z,102105.19
2022-08-29T15:04:36.796Z,102104.06
2022-08-29T15:07:06.306Z,102110.47
2022-08-29T15:09:34.440Z,102098.69
2022-08-29T15:12:01.987Z,102097.22
2022-08-29T15:14:29.645Z,102093.34
2022-08-29T15:16:57.223Z,102085.13
2022-08-29T15:22:13.677Z,102080.94
2022-08-29T15:24:41.723Z,102090.88
2022-08-29T15:27:09.939Z,102088.09
2022-08-29T15:29:40.500Z,102088.69
2022-08-29T15:32:08.323Z,102090.06
2022-08-29T15:34:36.654Z,102082.47
2022-08-29T15:37:05.995Z,102075.00
2022-08-29T15:39:33.926Z,102073.22
2022-08-29T15:42:03.637Z,102073.72
2022-08-29T15:44:31.710Z,102063.22
2022-08-29T15:46:59.391Z,102059.16
2022-08-29T15:49:29.065Z,102061.88
2022-08-29T15:51:57.430Z,102066.00
2022-08-29T15:54:26.652Z,102045.56
2022-08-29T15:56:54.629Z,102068.91
2022-08-29T15:59:41.172Z,102059.78
2022-08-29T16:02:11.334Z,102059.38
2022-08-29T16:04:42.821Z,102064.72
2022-08-29T16:07:12.624Z,102059.03
2022-08-29T16:09:40.989Z,102061.00
2022-08-29T16:12:08.845Z,102056.09
2022-08-29T16:14:58.446Z,102052.31
2022-08-29T16:17:24.066Z,102052.66
2022-08-29T16:19:51.690Z,102041.22
2022-08-29T16:22:19.630Z,102042.16
2022-08-29T16:24:47.145Z,102054.56
2022-08-29T16:27:15.602Z,102047.25
2022-08-29T16:29:44.213Z,102044.31
2022-08-29T16:32:11.740Z,102057.81
2022-08-29T16:34:39.280Z,102063.78
2022-08-29T16:37:08.014Z,102057.44
2022-08-29T16:39:35.527Z,102050.31
2022-08-29T16:42:03.085Z,102061.66
2022-08-29T16:44:31.770Z,102057.13
2022-08-29T16:46:59.317Z,102058.47
2022-08-29T16:49:26.791Z,102046.38
2022-08-29T16:51:54.337Z,102057.72
2022-08-29T16:54:22.078Z,102065.06
2022-08-29T16:56:49.596Z,102074.63
2022-08-29T16:59:17.251Z,102067.78
2022-08-29T17:01:50.399Z,102051.97
2022-08-29T17:04:21.441Z,102060.59
2022-08-29T17:06:49.198Z,102049.97
2022-08-29T17:09:17.889Z,102046.16
2022-08-29T17:11:44.930Z,102045.59
2022-08-29T17:14:11.582Z,102047.69
2022-08-29T17:16:40.233Z,102046.81
2022-08-29T17:19:09.071Z,102053.94
2022-08-29T17:21:36.878Z,102050.59
2022-08-29T17:24:07.239Z,102036.63
2022-08-29T17:26:40.717Z,102056.72
2022-08-29T17:29:09.562Z,102064.22
2022-08-29T17:31:38.852Z,102063.44
2022-08-29T17:34:08.332Z,102067.69
2022-08-29T17:36:37.500Z,102059.31
2022-08-29T17:39:06.973Z,102064.75
2022-08-29T17:41:37.149Z,102061.47
2022-08-29T17:44:07.235Z,102065.13
2022-08-29T17:46:35.247Z,102068.69
2022-08-29T17:49:07.482Z,102075.06
2022-08-29T17:51:35.814Z,102077.88
2022-08-29T17:54:04.496Z,102085.03
2022-08-29T17:56:44.860Z,102083.56
2022-08-29T17:59:14.403Z,102084.50
2022-08-29T18:01:42.187Z,102073.06
2022-08-29T18:04:09.926Z,102075.94
2022-08-29T18:06:38.304Z,102072.56
2022-08-29T18:09:06.940Z,102071.94
2022-08-29T18:11:39.875Z,102065.72
2022-08-29T18:14:08.596Z,102068.50
2022-08-29T18:16:36.776Z,102070.38
2022-08-29T18:19:05.215Z,102060.94
2022-08-29T18:21:33.064Z,102061.97
2022-08-29T18:24:01.194Z,102050.75
2022-08-29T18:26:29.538Z,102063.00
2022-08-29T18:28:57.049Z,102065.91
2022-08-29T18:31:24.686Z,102065.91
2022-08-29T18:34:00.962Z,102067.88
2022-08-29T18:36:33.367Z,102062.88
2022-08-29T18:39:02.054Z,102064.69
2022-08-29T18:41:29.827Z,102077.03
2022-08-29T18:43:58.886Z,102077.16
2022-08-29T18:46:28.149Z,102073.75
2022-08-29T18:48:55.828Z,102072.16
2022-08-29T18:51:23.395Z,102067.16
2022-08-29T18:53:50.965Z,102093.47
2022-08-29T18:56:18.682Z,102090.03
2022-08-29T18:58:46.167Z,102088.38
2022-08-29T19:01:27.149Z,102089.34
2022-08-29T19:03:58.022Z,102094.66
2022-08-29T19:06:27.278Z,102106.16
2022-08-29T19:08:57.123Z,102107.13
2022-08-29T19:11:26.125Z,102109.84
2022-08-29T19:13:53.916Z,102075.19
2022-08-29T19:16:23.852Z,102114.41
2022-08-29T19:18:52.395Z,102121.53
2022-08-29T19:21:19.434Z,102120.69
2022-08-29T19:23:52.298Z,102119.91
2022-08-29T19:26:28.469Z,102121.88
2022-08-29T19:28:59.235Z,102122.78
2022-08-29T19:31:28.923Z,102118.44
2022-08-29T19:33:57.103Z,102117.69
2022-08-29T19:36:24.865Z,102122.91
2022-08-29T19:38:52.479Z,102123.84
2022-08-29T19:41:20.291Z,102124.81
2022-08-29T19:43:47.982Z,102143.22
2022-08-29T19:46:21.304Z,102134.56
2022-08-29T19:48:51.290Z,102134.66
2022-08-29T19:51:21.424Z,102125.03
2022-08-29T19:53:50.019Z,102126.00
2022-08-29T19:56:17.895Z,102134.06
2022-08-29T19:58:45.548Z,102132.28
2022-08-29T20:01:13.246Z,102127.94
2022-08-29T20:03:42.692Z,102131.56
2022-08-29T20:06:10.741Z,102129.81
2022-08-29T20:08:42.641Z,102136.84
2022-08-29T20:11:21.020Z,102132.53
2022-08-29T20:13:51.255Z,102137.91
2022-08-29T20:16:22.221Z,102136.16
2022-08-29T20:18:51.804Z,102139.81
2022-08-29T20:21:20.207Z,102128.41
2022-08-29T20:23:49.892Z,102138.16
2022-08-29T20:26:20.319Z,102140.78
2022-08-29T20:28:49.190Z,102146.09
2022-08-29T20:31:16.827Z,102141.69
2022-08-29T20:33:44.841Z,102141.75
2022-08-29T20:36:30.209Z,102120.84
2022-08-29T20:38:57.768Z,102144.47
2022-08-29T20:41:25.657Z,102143.63
2022-08-29T20:43:53.160Z,102136.66
2022-08-29T20:46:21.101Z,102146.31
2022-08-29T20:48:48.682Z,102150.75
2022-08-29T20:51:16.213Z,102139.31
2022-08-29T20:53:43.716Z,102147.19
2022-08-29T20:56:11.329Z,102145.47
2022-08-29T20:58:38.825Z,102152.50
2022-08-29T21:01:06.727Z,102138.63
2022-08-29T21:03:52.797Z,102147.38
2022-08-29T21:06:21.770Z,102154.41
2022-08-29T21:08:49.800Z,102148.31
2022-08-29T21:11:17.320Z,102148.31
2022-08-29T21:13:45.046Z,102144.81
2022-08-29T21:16:13.023Z,102148.28
2022-08-29T21:18:41.363Z,102140.50
2022-08-29T21:21:13.322Z,102149.25
2022-08-29T21:23:42.044Z,102149.34
2022-08-29T21:26:09.660Z,102145.00
2022-08-29T21:28:37.997Z,102146.78
2022-08-29T21:31:09.419Z,102150.25
2022-08-29T21:33:42.241Z,102145.94
2022-08-29T21:36:14.726Z,102142.53
2022-08-29T21:38:42.233Z,102142.53
2022-08-29T21:41:11.614Z,102145.19
2022-08-29T21:43:40.517Z,102109.53
2022-08-29T21:46:15.968Z,102144.41
2022-08-29T21:48:43.870Z,102143.53
2022-08-29T21:51:12.915Z,102148.84
2022-08-29T21:53:41.633Z,102148.94
2022-08-29T21:56:09.447Z,102147.09
2022-08-29T21:58:36.930Z,102154.16
2022-08-29T22:01:04.979Z,102162.06
2022-08-29T22:03:32.913Z,102149.91
2022-08-29T22:06:00.385Z,102156.91
2022-08-29T22:08:27.917Z,102155.19
2022-08-29T22:10:55.432Z,102164.00
2022-08-29T22:13:22.988Z,102161.41
2022-08-29T22:16:07.798Z,102163.13
2022-08-29T22:18:35.834Z,102156.16
2022-08-29T22:21:04.977Z,102170.22
2022-08-29T22:23:32.503Z,102164.19
2022-08-29T22:26:00.010Z,102169.41
2022-08-29T22:28:27.493Z,102176.44
2022-08-29T22:30:55.064Z,102167.72
2022-08-29T22:33:22.697Z,102177.38
2022-08-29T22:35:50.221Z,102186.09
2022-08-29T22:38:17.755Z,102185.28
2022-08-29T22:40:48.023Z,102180.03
2022-08-29T22:43:15.971Z,102188.81
2022-08-29T22:45:44.426Z,102187.09
2022-08-29T22:48:13.238Z,102178.34
2022-08-29T22:50:45.894Z,102179.28
2022-08-29T22:53:25.470Z,102187.16
2022-08-29T22:55:52.957Z,102176.69
2022-08-29T22:58:20.429Z,102187.16
2022-08-29T23:00:47.899Z,102188.06
2022-08-29T23:03:15.839Z,102194.22
2022-08-29T23:05:43.676Z,102194.22
2022-08-29T23:08:11.218Z,102192.50
2022-08-29T23:10:38.772Z,102203.88
2022-08-29T23:13:06.256Z,102195.13
2022-08-29T23:15:33.941Z,102195.16
2022-08-29T23:18:03.268Z,102199.53
2022-08-29T23:20:30.719Z,102196.09
2022-08-29T23:22:58.351Z,102192.56
2022-08-29T23:25:25.818Z,102192.56
2022-08-29T23:27:53.306Z,102186.47
2022-08-29T23:30:20.832Z,102185.63
2022-08-29T23:32:48.339Z,102184.72
2022-08-29T23:35:15.854Z,102183.91
2022-08-29T23:37:43.348Z,102185.69
2022-08-29T23:40:11.318Z,102188.31
2022-08-29T23:42:38.861Z,102185.69
2022-08-29T23:45:06.911Z,102183.97
2022-08-29T23:47:36.098Z,102192.72
2022-08-29T23:50:05.918Z,102193.56
2022-08-29T23:52:33.468Z,102183.97
2022-08-29T23:55:01.987Z,102191.00
2022-08-29T23:57:29.435Z,102182.28
